createdAt,value
2022-12-20T00:01:24.465Z,9.63
2022-12-20T00:06:26.726Z,6.13
2022-12-20T00:11:28.961Z,3.92
2022-12-20T00:16:30.855Z,4.60
2022-12-20T00:21:34.267Z,3.78
2022-12-20T00:26:36.323Z,8.70
2022-12-20T00:31:38.051Z,9.30
2022-12-20T00:36:40.173Z,11.10
2022-12-20T00:41:42.814Z,7.93
2022-12-20T00:46:44.484Z,7.65
2022-12-20T00:51:46.364Z,6.65
2022-12-20T00:56:48.001Z,7.60
2022-12-20T01:01:49.716Z,7.45
2022-12-20T01:06:51.397Z,6.40
2022-12-20T01:11:53.367Z,6.93
2022-12-20T01:16:55.098Z,6.25
2022-12-20T01:21:56.836Z,5.78
2022-12-20T01:26:58.735Z,5.32
2022-12-20T01:32:01.086Z,3.17
2022-12-20T01:37:03.193Z,2.97
2022-12-20T01:42:05.410Z,2.95
2022-12-20T01:47:07.566Z,3.17
2022-12-20T01:52:13.104Z,4.65
2022-12-20T01:57:18.845Z,3.60
2022-12-20T02:02:20.522Z,3.60
2022-12-20T02:07:29.612Z,5.43
2022-12-20T02:12:41.356Z,6.73
2022-12-20T02:17:51.901Z,6.47
2022-12-20T02:23:15.569Z,5.65
2022-12-20T02:28:55.511Z,6.03
2022-12-20T02:33:58.769Z,5.97
2022-12-20T02:39:00.411Z,5.63
2022-12-20T02:44:09.276Z,5.47
2022-12-20T02:49:16.520Z,5.97
2022-12-20T02:54:19.217Z,5.65
2022-12-20T02:59:27.762Z,5.25
2022-12-20T03:04:34.794Z,5.88
2022-12-20T03:09:40.379Z,5.32
2022-12-20T03:14:42.459Z,5.32
2022-12-20T03:19:45.528Z,4.75
2022-12-20T03:24:47.226Z,4.82
2022-12-20T03:29:49.056Z,4.95
2022-12-20T03:34:51.306Z,5.15
2022-12-20T03:40:01.734Z,4.85
2022-12-20T03:45:04.159Z,4.07
2022-12-20T03:50:07.375Z,4.47
2022-12-20T03:55:10.577Z,5.68
2022-12-20T04:00:15.816Z,6.70
2022-12-20T04:05:21.324Z,6.80
2022-12-20T04:10:23.416Z,6.75
2022-12-20T04:15:25.394Z,5.93
2022-12-20T04:20:28.196Z,5.80
2022-12-20T04:25:44.351Z,5.32
2022-12-20T04:30:46.393Z,6.30
2022-12-20T04:35:55.319Z,5.90
2022-12-20T04:40:59.257Z,6.65
2022-12-20T04:46:05.346Z,6.13
2022-12-20T04:51:07.113Z,5.53
2022-12-20T04:56:09.638Z,6.43
2022-12-20T05:01:12.105Z,6.65
2022-12-20T05:06:20.855Z,6.00
2022-12-20T05:11:22.633Z,5.45
2022-12-20T05:16:25.614Z,6.63
2022-12-20T05:21:28.009Z,7.38
2022-12-20T05:26:33.266Z,6.22
2022-12-20T05:31:35.927Z,6.25
2022-12-20T05:36:38.381Z,5.85
2022-12-20T05:41:41.949Z,6.00
2022-12-20T05:46:45.014Z,6.55
2022-12-20T05:51:51.943Z,6.07
2022-12-20T05:56:59.264Z,7.80
2022-12-20T06:07:11.592Z,6.47
2022-12-20T06:12:13.177Z,6.55
2022-12-20T06:17:15.595Z,7.25
2022-12-20T06:22:18.338Z,7.05
2022-12-20T06:27:24.358Z,7.95
2022-12-20T06:32:35.680Z,7.97
2022-12-20T06:37:41.484Z,6.28
2022-12-20T06:42:43.230Z,6.40
2022-12-20T06:47:47.547Z,6.93
2022-12-20T06:52:49.240Z,5.80
2022-12-20T06:57:51.558Z,7.63
2022-12-20T07:02:55.692Z,5.45
2022-12-20T07:07:58.755Z,5.35
2022-12-20T07:13:00.417Z,6.68
2022-12-20T07:18:02.213Z,6.50
2022-12-20T07:23:03.985Z,6.60
2022-12-20T07:28:05.619Z,6.65
2022-12-20T07:33:07.218Z,6.78
2022-12-20T07:38:09.396Z,7.40
2022-12-20T07:43:11.057Z,7.70
2022-12-20T07:48:16.306Z,6.72
2022-12-20T07:53:25.456Z,7.10
2022-12-20T07:58:32.686Z,6.60
2022-12-20T08:09:13.112Z,6.53
2022-12-20T08:14:17.368Z,6.63
2022-12-20T08:48:03.859Z,7.40
2022-12-20T08:53:05.423Z,7.60
2022-12-20T08:58:07.005Z,7.55
2022-12-20T09:03:08.751Z,7.22
2022-12-20T09:08:15.446Z,7.22
2022-12-20T09:13:17.089Z,7.55
2022-12-20T09:18:18.966Z,6.25
2022-12-20T09:23:20.728Z,8.40
2022-12-20T09:28:23.097Z,7.38
2022-12-20T09:33:24.671Z,8.32
2022-12-20T09:38:27.543Z,9.15
2022-12-20T09:43:30.487Z,7.32
2022-12-20T09:48:35.255Z,8.00
2022-12-20T09:54:17.301Z,6.18
2022-12-20T09:59:22.553Z,8.23
2022-12-20T10:04:30.724Z,9.05
2022-12-20T10:09:38.331Z,9.13
2022-12-20T10:15:18.992Z,6.95
2022-12-20T10:20:37.870Z,7.13
2022-12-20T10:25:41.083Z,8.95
2022-12-20T10:30:43.551Z,7.55
2022-12-20T10:35:45.349Z,9.75
2022-12-20T10:41:23.911Z,7.78
2022-12-20T10:46:37.243Z,6.95
2022-12-20T10:51:51.290Z,7.80
2022-12-20T10:57:15.015Z,7.07
2022-12-20T11:02:41.526Z,8.70
2022-12-20T11:13:34.124Z,7.83
2022-12-20T11:18:50.963Z,7.03
2022-12-20T11:24:02.792Z,7.82
2022-12-20T11:29:21.375Z,7.30
2022-12-20T11:34:50.818Z,7.03
2022-12-20T11:40:17.208Z,6.90
2022-12-20T11:45:26.115Z,8.05
2022-12-20T11:51:21.332Z,7.40
2022-12-20T11:56:44.515Z,6.15
2022-12-20T12:01:50.528Z,7.00
2022-12-20T12:06:59.801Z,7.45
2022-12-20T12:12:09.972Z,7.65
2022-12-20T12:17:26.281Z,7.68
2022-12-20T12:22:34.380Z,8.70
2022-12-20T12:27:36.075Z,7.35
2022-12-20T12:32:54.595Z,7.03
2022-12-20T12:38:34.762Z,7.38
2022-12-20T12:43:46.704Z,12.35
2022-12-20T12:48:58.342Z,7.35
2022-12-20T12:54:09.098Z,6.70
2022-12-20T12:59:16.767Z,20.38
2022-12-20T13:04:18.167Z,16.60
2022-12-20T13:09:25.899Z,8.45
2022-12-20T13:14:27.352Z,7.43
2022-12-20T13:19:28.811Z,6.50
2022-12-20T13:24:56.767Z,8.20
2022-12-20T13:30:07.616Z,8.80
2022-12-20T13:35:24.750Z,6.93
2022-12-20T13:40:36.639Z,7.40
2022-12-20T13:45:43.427Z,7.22
2022-12-20T13:50:54.328Z,6.85
2022-12-20T13:55:56.278Z,7.70
2022-12-20T14:01:06.432Z,7.10
2022-12-20T14:06:13.331Z,8.13
2022-12-20T14:11:18.125Z,8.43
2022-12-20T14:16:20.277Z,11.10
2022-12-20T14:21:22.278Z,9.05
2022-12-20T14:26:42.890Z,9.07
2022-12-20T14:31:47.329Z,10.43
2022-12-20T14:36:50.003Z,8.95
2022-12-20T14:42:06.794Z,9.63
2022-12-20T14:47:18.148Z,14.10
2022-12-20T14:52:39.064Z,12.18
2022-12-20T14:57:46.396Z,9.93
2022-12-20T15:02:56.177Z,11.80
2022-12-20T15:08:15.462Z,10.35
2022-12-20T15:13:18.772Z,9.53
2022-12-20T15:18:21.423Z,10.00
2022-12-20T15:23:23.106Z,9.55
2022-12-20T15:28:26.406Z,9.82
2022-12-20T15:33:32.410Z,11.07
2022-12-20T15:38:55.209Z,10.43
2022-12-20T15:43:58.367Z,8.95
2022-12-20T15:49:00.187Z,7.45
2022-12-20T15:54:05.057Z,6.82
2022-12-20T15:59:24.844Z,3.60
2022-12-20T16:04:28.355Z,8.23
2022-12-20T16:09:29.964Z,11.73
2022-12-20T16:14:31.530Z,9.55
2022-12-20T16:19:33.115Z,8.25
2022-12-20T16:24:34.651Z,13.40
2022-12-20T16:29:36.383Z,14.15
2022-12-20T16:34:38.041Z,13.02
2022-12-20T16:39:40.270Z,11.27
2022-12-20T16:44:42.301Z,11.38
2022-12-20T16:49:51.873Z,11.07
2022-12-20T16:54:54.731Z,11.57
2022-12-20T16:59:56.450Z,10.30
2022-12-20T17:04:58.999Z,11.00
2022-12-20T17:10:00.565Z,10.65
2022-12-20T17:15:02.177Z,11.43
2022-12-20T17:20:03.966Z,12.27
2022-12-20T17:25:05.807Z,6.78
2022-12-20T17:30:08.065Z,7.85
2022-12-20T17:35:28.451Z,5.20
2022-12-20T17:40:30.029Z,3.38
2022-12-20T17:45:33.724Z,4.55
2022-12-20T17:50:35.372Z,9.32
2022-12-20T17:55:37.017Z,10.73
2022-12-20T18:00:39.629Z,3.50
2022-12-20T18:05:41.464Z,9.93
2022-12-20T18:10:43.036Z,9.88
2022-12-20T18:15:44.642Z,9.32
2022-12-20T18:20:46.282Z,10.18
2022-12-20T18:25:47.955Z,9.35
2022-12-20T18:30:49.521Z,9.95
2022-12-20T18:36:04.061Z,9.05
2022-12-20T18:41:07.697Z,9.30
2022-12-20T18:46:11.893Z,8.95
2022-12-20T18:56:57.164Z,10.80
2022-12-20T19:02:01.814Z,9.80
2022-12-20T19:23:53.644Z,9.85
2022-12-20T19:46:09.731Z,10.18
2022-12-20T19:51:13.594Z,9.70
2022-12-20T20:39:26.856Z,12.52
2022-12-20T21:11:14.114Z,9.68
2022-12-20T21:37:51.957Z,7.18
2022-12-20T21:59:34.895Z,6.20
2022-12-20T22:04:36.580Z,6.63
2022-12-20T22:36:25.826Z,5.57
2022-12-20T23:08:33.832Z,4.60
2022-12-20T23:53:15.020Z,3.00
